ADDS METAR Data INFO
IDs: Format: Raw Decoded Include TAF

Data at: 0026 UTC 24 May 2017

KWVI 232353Z AUTO 25007KT 10SM 14/12 A2999 RMK AO2 SLP154 T01440122 10189 20144 $

KSNS 232353Z 28009KT 10SM OVC011 16/11 A2998 RMK AO2 SLP162 T01560111 10222 20156 58003

KMRY 240019Z 27005KT 10SM SCT011 15/11 A2998 RMK AO2 T01500111

KSJC 232353Z 30012KT 10SM FEW060 FEW100 24/14 A2992 RMK AO2 SLP129 T02390139 10256 20211 58003

KSFO 232356Z 30020KT 10SM FEW008 FEW200 17/10 A2993 RMK AO2 SLP134 T01720100 10206 20167 56006

KHAF 240015Z AUTO 21005KT 7SM OVC008 13/10 A2999 RMK AO2


Page loaded:  00:26 UTC  |   05:26 PM Pacific  |   06:26 PM Mountain  |   07:26 PM Central  |   08:26 PM Eastern

 

ADVISORIES

FORECASTS

FORECASTS

OBSERVATIONS

USER TOOLS

ABOUT US